createdAt,value
2022-10-19T00:01:50.230Z,0.95
2022-10-19T00:04:19.656Z,0.82
2022-10-19T00:06:50.520Z,0.65
2022-10-19T00:09:23.047Z,0.80
2022-10-19T00:11:53.172Z,0.60
2022-10-19T00:14:24.933Z,1.02
2022-10-19T00:16:54.873Z,0.85
2022-10-19T00:21:53.675Z,0.65
2022-10-19T00:24:21.924Z,0.80
2022-10-19T00:26:50.519Z,0.70
2022-10-19T00:29:18.856Z,0.75
2022-10-19T00:31:47.084Z,0.97
2022-10-19T00:34:15.985Z,0.73
2022-10-19T00:36:45.478Z,0.47
2022-10-19T00:39:17.223Z,0.90
2022-10-19T00:41:46.950Z,0.80
2022-10-19T00:46:45.949Z,0.80
2022-10-19T00:51:43.698Z,0.70
2022-10-19T00:54:12.940Z,1.67
2022-10-19T00:59:11.160Z,0.95
2022-10-19T01:01:39.711Z,0.75
2022-10-19T01:04:07.837Z,0.82
2022-10-19T01:06:37.631Z,0.77
2022-10-19T01:09:06.088Z,0.73
2022-10-19T01:11:41.216Z,0.85
2022-10-19T01:14:18.542Z,0.65
2022-10-19T01:16:52.148Z,0.50
2022-10-19T01:19:36.986Z,0.68
2022-10-19T01:22:09.690Z,0.60
2022-10-19T01:24:46.093Z,0.70
2022-10-19T01:27:24.596Z,0.40
2022-10-19T01:30:02.273Z,0.88
2022-10-19T01:32:38.198Z,0.60
2022-10-19T01:35:09.012Z,0.52
2022-10-19T01:37:42.674Z,0.60
2022-10-19T01:40:12.684Z,0.60
2022-10-19T01:42:44.945Z,0.50
2022-10-19T01:45:16.491Z,0.50
2022-10-19T01:47:49.544Z,0.47
2022-10-19T01:50:19.116Z,0.40
2022-10-19T01:52:48.199Z,0.50
2022-10-19T01:55:17.455Z,0.35
2022-10-19T01:57:48.279Z,0.50
2022-10-19T02:00:18.159Z,0.40
2022-10-19T02:02:47.806Z,0.30
2022-10-19T02:05:17.029Z,0.35
2022-10-19T02:12:42.444Z,0.38
2022-10-19T02:15:12.472Z,0.40
2022-10-19T02:17:45.902Z,0.40
2022-10-19T02:20:15.168Z,0.52
2022-10-19T02:22:44.807Z,0.90
2022-10-19T02:25:14.852Z,0.40
2022-10-19T02:27:43.995Z,0.40
2022-10-19T02:33:56.185Z,0.40
2022-10-19T02:36:25.634Z,0.30
2022-10-19T02:38:54.923Z,0.40
2022-10-19T02:43:57.171Z,0.40
2022-10-19T02:46:29.844Z,0.50
2022-10-19T02:49:01.115Z,0.40
2022-10-19T02:51:31.083Z,0.82
2022-10-19T02:54:01.253Z,1.25
2022-10-19T02:56:33.196Z,0.40
2022-10-19T02:59:01.641Z,0.40
2022-10-19T03:01:33.036Z,0.40
2022-10-19T03:04:02.954Z,0.40
2022-10-19T03:06:31.426Z,0.40
2022-10-19T03:09:00.123Z,0.30
2022-10-19T03:11:28.744Z,0.40
2022-10-19T03:13:56.870Z,0.38
2022-10-19T03:16:25.782Z,0.75
2022-10-19T03:18:54.606Z,0.40
2022-10-19T03:21:25.086Z,0.43
2022-10-19T03:23:54.571Z,0.60
2022-10-19T03:26:27.891Z,0.40
2022-10-19T03:28:56.832Z,0.50
2022-10-19T03:31:27.268Z,0.50
2022-10-19T03:33:59.517Z,0.50
2022-10-19T03:36:31.382Z,0.30
2022-10-19T03:39:00.271Z,0.45
2022-10-19T03:41:30.355Z,0.30
2022-10-19T03:46:33.590Z,0.40
2022-10-19T03:49:02.261Z,0.80
2022-10-19T03:51:33.509Z,0.30
2022-10-19T03:54:03.360Z,0.30
2022-10-19T03:56:34.879Z,0.40
2022-10-19T03:59:05.631Z,0.50
2022-10-19T04:01:35.559Z,0.40
2022-10-19T04:04:08.168Z,0.40
2022-10-19T04:06:40.276Z,0.20
2022-10-19T04:09:10.454Z,0.32
2022-10-19T04:11:41.022Z,0.30
2022-10-19T04:16:45.612Z,0.50
2022-10-19T04:19:16.325Z,0.50
2022-10-19T04:21:49.490Z,0.30
2022-10-19T04:24:19.434Z,0.32
2022-10-19T04:26:49.843Z,0.20
2022-10-19T04:29:19.209Z,0.50
2022-10-19T04:31:49.756Z,0.25
2022-10-19T04:34:19.611Z,0.40
2022-10-19T04:36:52.986Z,0.35
2022-10-19T04:39:22.077Z,0.50
2022-10-19T04:41:54.756Z,0.30
2022-10-19T04:46:58.798Z,5.40
2022-10-19T04:49:28.020Z,0.85
2022-10-19T04:51:58.985Z,1.08
2022-10-19T04:54:28.655Z,0.77
2022-10-19T04:56:58.391Z,0.40
2022-10-19T04:59:26.935Z,0.30
2022-10-19T05:01:55.197Z,1.70
2022-10-19T05:04:23.388Z,6.38
2022-10-19T05:06:51.772Z,0.50
2022-10-19T05:09:21.401Z,0.98
2022-10-19T05:11:50.575Z,2.30
2022-10-19T05:14:21.006Z,4.97
2022-10-19T05:16:52.018Z,2.20
2022-10-19T05:19:24.457Z,0.50
2022-10-19T05:21:56.351Z,0.60
2022-10-19T05:24:28.026Z,0.60
2022-10-19T05:27:01.000Z,0.50
2022-10-19T05:29:36.624Z,0.45
2022-10-19T05:32:04.990Z,0.50
2022-10-19T05:34:33.687Z,0.40
2022-10-19T05:37:02.247Z,0.40
2022-10-19T05:39:31.751Z,0.50
2022-10-19T05:42:00.221Z,0.50
2022-10-19T05:44:28.368Z,0.50
2022-10-19T05:46:56.781Z,0.65
2022-10-19T05:49:25.163Z,0.30
2022-10-19T05:51:53.894Z,0.70
2022-10-19T05:54:25.039Z,0.30
2022-10-19T05:57:01.512Z,0.50
2022-10-19T05:59:29.806Z,0.90
2022-10-19T06:01:58.540Z,0.40
2022-10-19T06:04:26.602Z,0.30
2022-10-19T06:06:55.252Z,0.60
2022-10-19T06:09:23.536Z,0.32
2022-10-19T06:11:52.151Z,0.43
2022-10-19T06:14:22.809Z,0.43
2022-10-19T06:16:52.544Z,0.50
2022-10-19T06:21:49.259Z,0.63
2022-10-19T06:24:17.511Z,0.68
2022-10-19T06:26:45.878Z,0.50
2022-10-19T06:29:14.245Z,0.50
2022-10-19T06:31:45.735Z,0.60
2022-10-19T06:34:13.880Z,0.47
2022-10-19T06:36:42.448Z,0.50
2022-10-19T06:39:11.193Z,0.60
2022-10-19T06:41:39.455Z,0.50
2022-10-19T06:44:07.661Z,0.80
2022-10-19T06:46:35.914Z,0.70
2022-10-19T06:49:05.581Z,0.90
2022-10-19T06:51:34.396Z,0.40
2022-10-19T06:54:02.586Z,0.68
2022-10-19T06:56:31.348Z,0.73
2022-10-19T06:58:59.562Z,0.90
2022-10-19T07:01:27.982Z,0.90
2022-10-19T07:03:56.637Z,0.88
2022-10-19T07:06:27.869Z,0.70
2022-10-19T07:08:56.070Z,0.57
2022-10-19T07:11:24.487Z,0.50
2022-10-19T07:13:53.464Z,0.73
2022-10-19T07:16:22.222Z,0.50
2022-10-19T07:18:50.641Z,0.30
2022-10-19T07:21:19.608Z,0.60
2022-10-19T07:23:49.438Z,0.63
2022-10-19T07:26:18.883Z,3.83
2022-10-19T07:28:48.311Z,0.90
2022-10-19T07:31:19.263Z,0.30
2022-10-19T07:33:47.914Z,0.30
2022-10-19T07:36:16.231Z,0.40
2022-10-19T07:38:44.312Z,0.50
2022-10-19T07:41:14.939Z,0.57
2022-10-19T07:43:43.768Z,0.30
2022-10-19T07:46:13.498Z,0.30
2022-10-19T07:51:10.609Z,0.50
2022-10-19T07:53:39.398Z,0.63
2022-10-19T07:56:09.459Z,0.82
2022-10-19T07:58:39.702Z,0.40
2022-10-19T08:01:09.140Z,0.35
2022-10-19T08:06:26.857Z,2.22
2022-10-19T08:08:55.538Z,0.30
2022-10-19T08:11:25.181Z,2.17
2022-10-19T08:13:55.098Z,0.65
2022-10-19T08:16:25.321Z,3.13
2022-10-19T08:18:54.205Z,1.05
2022-10-19T08:21:22.595Z,1.65
2022-10-19T08:23:50.801Z,1.20
2022-10-19T08:26:19.262Z,0.65
2022-10-19T08:28:47.483Z,0.40
2022-10-19T08:31:18.320Z,0.60
2022-10-19T08:33:46.894Z,0.80
2022-10-19T08:36:15.321Z,0.80
2022-10-19T08:38:45.376Z,0.57
2022-10-19T08:41:21.112Z,1.10
2022-10-19T08:43:56.131Z,1.05
2022-10-19T08:46:33.769Z,0.57
2022-10-19T08:49:02.258Z,0.57
2022-10-19T08:51:32.294Z,0.50
2022-10-19T08:54:01.649Z,0.90
2022-10-19T08:56:51.388Z,0.43
2022-10-19T08:59:28.327Z,0.50
2022-10-19T09:02:00.036Z,0.30
2022-10-19T09:04:30.102Z,0.30
2022-10-19T09:07:04.615Z,0.68
2022-10-19T09:09:33.832Z,0.40
2022-10-19T09:12:04.671Z,4.40
2022-10-19T09:14:33.638Z,1.17
2022-10-19T09:17:04.922Z,0.50
2022-10-19T09:19:33.061Z,5.15
2022-10-19T09:22:04.456Z,0.70
2022-10-19T09:24:36.537Z,0.63
2022-10-19T09:27:05.265Z,1.70
2022-10-19T09:29:37.728Z,1.57
2022-10-19T09:32:12.570Z,0.63
2022-10-19T09:34:42.768Z,0.57
2022-10-19T09:37:21.196Z,1.35
2022-10-19T09:39:54.841Z,1.15
2022-10-19T09:42:25.914Z,0.40
2022-10-19T09:44:54.485Z,0.32
2022-10-19T09:47:32.762Z,1.15
2022-10-19T09:50:10.057Z,0.57
2022-10-19T09:52:39.704Z,2.00
2022-10-19T09:57:42.895Z,2.50
2022-10-19T10:00:18.383Z,0.55
2022-10-19T10:02:51.991Z,0.35
2022-10-19T10:05:20.415Z,0.40
2022-10-19T10:07:49.299Z,0.28
2022-10-19T10:10:21.510Z,0.20
2022-10-19T10:12:50.346Z,0.52
2022-10-19T10:15:20.209Z,0.30
2022-10-19T10:17:49.785Z,0.40
2022-10-19T10:22:52.856Z,0.95
2022-10-19T10:25:21.013Z,0.60
2022-10-19T10:27:55.307Z,0.52
2022-10-19T10:30:23.451Z,0.45
2022-10-19T10:32:53.530Z,0.20
2022-10-19T10:35:24.533Z,2.35
2022-10-19T10:38:04.379Z,0.68
2022-10-19T10:40:33.035Z,0.20
2022-10-19T10:43:04.320Z,0.30
2022-10-19T10:45:33.708Z,4.03
2022-10-19T10:48:11.662Z,0.40
2022-10-19T10:50:39.886Z,0.40
2022-10-19T10:53:31.716Z,0.25
2022-10-19T10:55:59.774Z,0.30
2022-10-19T10:58:35.942Z,0.20
2022-10-19T11:01:07.844Z,0.20
2022-10-19T11:03:37.248Z,0.38
2022-10-19T11:06:05.898Z,0.30
2022-10-19T11:08:39.373Z,0.32
2022-10-19T11:11:14.456Z,0.30
2022-10-19T11:13:46.734Z,0.20
2022-10-19T11:16:16.264Z,0.20
2022-10-19T11:18:46.300Z,0.20
2022-10-19T11:21:19.389Z,0.50
2022-10-19T11:24:03.633Z,0.40
2022-10-19T11:26:45.086Z,0.68
2022-10-19T11:29:22.774Z,0.57
2022-10-19T11:31:52.530Z,0.40
2022-10-19T11:34:28.945Z,0.20
2022-10-19T11:37:00.634Z,0.17
2022-10-19T11:39:37.756Z,0.20
2022-10-19T11:42:09.944Z,0.30
2022-10-19T11:44:43.765Z,0.45
2022-10-19T11:47:24.277Z,0.90
2022-10-19T11:50:01.104Z,1.92
2022-10-19T11:52:33.874Z,0.30
2022-10-19T11:55:12.568Z,0.20
2022-10-19T11:57:43.951Z,0.38
2022-10-19T12:00:15.402Z,0.43
2022-10-19T12:03:19.135Z,0.40
2022-10-19T12:06:08.247Z,0.30
2022-10-19T12:08:44.163Z,0.17
2022-10-19T12:11:20.958Z,0.30
2022-10-19T12:13:50.573Z,0.40
2022-10-19T12:16:19.720Z,0.38
2022-10-19T12:18:50.108Z,0.20
2022-10-19T12:21:21.197Z,0.10
2022-10-19T12:23:49.795Z,0.10
2022-10-19T12:26:21.041Z,0.15
2022-10-19T12:28:51.646Z,0.63
2022-10-19T12:31:20.262Z,0.35
2022-10-19T12:33:52.152Z,0.20
2022-10-19T12:36:28.120Z,0.30
2022-10-19T12:39:07.263Z,0.20
2022-10-19T12:41:49.042Z,0.30
2022-10-19T12:44:30.236Z,0.17
2022-10-19T12:47:02.461Z,0.20
2022-10-19T12:49:49.302Z,0.20
2022-10-19T12:52:36.759Z,0.20
2022-10-19T12:55:14.151Z,0.40
2022-10-19T12:57:49.222Z,0.22
2022-10-19T13:00:22.267Z,0.30
2022-10-19T13:03:01.879Z,0.20
2022-10-19T13:08:03.254Z,0.30
2022-10-19T13:10:33.996Z,0.35
2022-10-19T13:13:05.372Z,0.50
2022-10-19T13:15:52.768Z,0.40
2022-10-19T13:18:40.975Z,0.30
2022-10-19T13:21:10.140Z,0.32
2022-10-19T13:23:42.631Z,0.98
2022-10-19T13:26:33.324Z,0.80
2022-10-19T13:29:04.683Z,0.50
2022-10-19T13:31:37.978Z,0.30
2022-10-19T13:34:13.144Z,0.30
2022-10-19T13:37:02.992Z,0.30
2022-10-19T13:39:34.645Z,0.30
2022-10-19T13:42:07.366Z,0.40
2022-10-19T13:44:42.665Z,0.40
2022-10-19T13:50:23.711Z,0.50
2022-10-19T13:53:08.077Z,0.30
2022-10-19T13:55:49.564Z,0.40
2022-10-19T13:58:43.686Z,0.60
2022-10-19T14:01:23.392Z,0.40
2022-10-19T14:04:01.248Z,0.65
2022-10-19T14:06:35.848Z,0.55
2022-10-19T14:09:16.926Z,0.50
2022-10-19T14:11:48.638Z,0.60
2022-10-19T14:14:19.502Z,0.60
2022-10-19T14:16:53.040Z,0.60
2022-10-19T14:19:27.811Z,0.22
2022-10-19T14:21:59.505Z,0.32
2022-10-19T14:24:31.152Z,3.10
2022-10-19T14:27:02.476Z,0.43
2022-10-19T14:29:49.512Z,0.70
2022-10-19T14:32:23.580Z,0.38
2022-10-19T14:34:53.331Z,0.50
2022-10-19T14:37:23.327Z,0.77
2022-10-19T14:40:05.915Z,0.65
2022-10-19T14:42:42.893Z,0.80
2022-10-19T14:45:16.839Z,0.50
2022-10-19T14:48:02.458Z,0.90
2022-10-19T14:50:35.705Z,0.60
2022-10-19T14:53:20.108Z,0.40
2022-10-19T14:55:48.787Z,0.50
2022-10-19T14:58:19.241Z,0.52
2022-10-19T15:00:49.740Z,0.52
2022-10-19T15:03:22.243Z,0.50
2022-10-19T15:05:54.177Z,0.60
2022-10-19T15:08:25.835Z,0.40
2022-10-19T15:10:54.730Z,0.40
2022-10-19T15:13:25.698Z,0.50
2022-10-19T15:15:54.485Z,0.40
2022-10-19T15:18:47.775Z,0.30
2022-10-19T15:21:16.502Z,0.50
2022-10-19T15:23:45.701Z,0.55
2022-10-19T15:26:17.286Z,0.40
2022-10-19T15:28:46.806Z,0.55
2022-10-19T15:31:17.674Z,0.45
2022-10-19T15:33:48.126Z,0.57
2022-10-19T15:36:19.819Z,0.93
2022-10-19T15:38:49.485Z,0.60
2022-10-19T15:41:19.397Z,0.60
2022-10-19T15:43:49.651Z,3.03
2022-10-19T15:46:25.952Z,0.90
2022-10-19T15:48:55.722Z,0.60
2022-10-19T15:51:47.731Z,0.60
2022-10-19T15:54:19.336Z,0.73
2022-10-19T15:56:48.524Z,0.90
2022-10-19T15:59:18.351Z,1.75
2022-10-19T16:04:21.038Z,0.90
2022-10-19T16:06:49.245Z,0.80
2022-10-19T16:09:20.963Z,0.43
2022-10-19T16:11:50.472Z,0.82
2022-10-19T16:14:19.655Z,0.98
2022-10-19T16:16:50.298Z,0.80
2022-10-19T16:19:18.779Z,0.40
2022-10-19T16:21:50.237Z,0.70
2022-10-19T16:24:21.012Z,0.60
2022-10-19T16:26:49.567Z,0.70
2022-10-19T16:29:17.947Z,0.80
2022-10-19T16:31:46.035Z,0.88
2022-10-19T16:34:14.389Z,1.20
2022-10-19T16:36:43.210Z,3.53
2022-10-19T16:39:12.367Z,1.35
2022-10-19T16:41:42.105Z,1.80
2022-10-19T16:44:12.600Z,1.33
2022-10-19T16:46:40.869Z,1.73
2022-10-19T16:49:09.395Z,3.13
2022-10-19T16:51:38.463Z,3.50
2022-10-19T16:54:08.316Z,5.50
2022-10-19T16:56:36.933Z,4.70
2022-10-19T16:59:07.621Z,2.28
2022-10-19T17:01:36.564Z,2.33
2022-10-19T17:04:05.055Z,1.40
2022-10-19T17:06:34.897Z,1.23
2022-10-19T17:11:52.275Z,1.20
2022-10-19T17:14:22.470Z,1.58
2022-10-19T17:16:50.590Z,1.60
2022-10-19T17:19:19.637Z,1.48
2022-10-19T17:21:49.451Z,1.38
2022-10-19T17:24:21.903Z,1.33
2022-10-19T17:26:51.705Z,1.60
2022-10-19T17:29:22.547Z,1.50
2022-10-19T17:31:51.355Z,1.45
2022-10-19T17:34:19.897Z,1.58
2022-10-19T17:36:48.834Z,1.40
2022-10-19T17:41:46.770Z,1.50
2022-10-19T17:44:15.828Z,1.30
2022-10-19T17:46:45.998Z,1.30
2022-10-19T17:49:15.219Z,1.02
2022-10-19T17:51:44.034Z,1.60
2022-10-19T17:54:13.908Z,1.40
2022-10-19T17:56:45.536Z,1.40
2022-10-19T17:59:15.647Z,1.42
2022-10-19T18:01:46.495Z,1.77
2022-10-19T18:04:15.878Z,1.20
2022-10-19T18:06:44.136Z,1.40
2022-10-19T18:09:13.769Z,1.80
2022-10-19T18:11:47.782Z,2.08
2022-10-19T18:14:17.768Z,2.03
2022-10-19T18:16:49.031Z,1.90
2022-10-19T18:19:19.488Z,1.73
2022-10-19T18:21:49.725Z,2.45
2022-10-19T18:24:23.438Z,2.38
2022-10-19T18:26:54.012Z,2.85
2022-10-19T18:29:25.017Z,2.50
2022-10-19T18:31:57.285Z,2.47
2022-10-19T18:34:27.330Z,2.00
2022-10-19T18:36:56.012Z,1.85
2022-10-19T18:39:24.752Z,2.15
2022-10-19T18:41:55.353Z,2.17
2022-10-19T18:44:27.839Z,2.40
2022-10-19T18:46:59.427Z,4.10
2022-10-19T18:49:28.180Z,3.03
2022-10-19T18:51:56.536Z,2.72
2022-10-19T18:54:54.596Z,2.70
2022-10-19T18:58:19.911Z,3.30
2022-10-19T19:00:50.459Z,3.72
2022-10-19T19:03:20.694Z,4.32
2022-10-19T19:05:49.321Z,4.15
2022-10-19T19:08:17.985Z,4.05
2022-10-19T19:10:46.773Z,3.75
2022-10-19T19:13:16.042Z,4.75
2022-10-19T19:18:15.247Z,4.68
2022-10-19T19:23:14.857Z,7.22
2022-10-19T19:25:43.496Z,7.10
2022-10-19T19:28:12.168Z,6.75
2022-10-19T19:30:41.675Z,6.97
2022-10-19T19:33:10.462Z,5.55
2022-10-19T19:35:43.247Z,6.25
2022-10-19T19:38:12.083Z,5.63
2022-10-19T19:40:42.390Z,5.95
2022-10-19T19:43:10.862Z,5.60
2022-10-19T19:45:39.356Z,5.80
2022-10-19T19:48:08.235Z,4.80
2022-10-19T19:50:37.755Z,4.93
2022-10-19T19:53:06.243Z,4.82
2022-10-19T19:55:38.867Z,4.40
2022-10-19T19:58:08.628Z,4.60
2022-10-19T20:00:37.313Z,4.53
2022-10-19T20:03:05.518Z,4.30
2022-10-19T20:05:34.138Z,4.40
2022-10-19T20:08:02.532Z,4.25
2022-10-19T20:10:30.870Z,4.47
2022-10-19T20:12:59.224Z,4.50
2022-10-19T20:15:28.947Z,3.63
2022-10-19T20:20:25.653Z,3.60
2022-10-19T20:22:53.829Z,3.90
2022-10-19T20:25:22.293Z,3.92
2022-10-19T20:27:50.511Z,3.70
2022-10-19T20:30:20.427Z,3.67
2022-10-19T20:32:50.209Z,3.85
2022-10-19T20:35:20.562Z,4.30
2022-10-19T20:37:51.952Z,3.95
2022-10-19T20:40:20.798Z,3.90
2022-10-19T20:42:49.383Z,3.83
2022-10-19T20:45:18.325Z,3.80
2022-10-19T20:47:46.985Z,3.92
2022-10-19T20:50:19.303Z,4.50
2022-10-19T20:52:49.975Z,3.97
2022-10-19T20:55:20.577Z,3.70
2022-10-19T20:57:48.665Z,4.10
2022-10-19T21:00:17.297Z,4.30
2022-10-19T21:02:45.725Z,3.75
2022-10-19T21:05:14.246Z,3.70
2022-10-19T21:07:45.375Z,3.35
2022-10-19T21:10:16.541Z,3.42
2022-10-19T21:12:44.779Z,2.95
2022-10-19T21:15:13.821Z,2.88
2022-10-19T21:17:42.808Z,2.70
2022-10-19T21:20:12.307Z,3.47
2022-10-19T21:22:42.770Z,3.17
2022-10-19T21:25:13.789Z,3.17
2022-10-19T21:27:42.981Z,3.20
2022-10-19T21:30:11.865Z,3.60
2022-10-19T21:32:40.801Z,3.60
2022-10-19T21:37:39.854Z,3.13
2022-10-19T21:42:38.128Z,3.45
2022-10-19T21:45:25.621Z,4.63
2022-10-19T21:47:56.240Z,4.13
2022-10-19T21:50:25.394Z,4.43
2022-10-19T21:52:53.639Z,3.25
2022-10-19T21:55:22.095Z,3.97
2022-10-19T21:57:52.586Z,3.17
2022-10-19T22:00:21.178Z,3.42
2022-10-19T22:02:50.303Z,3.10
2022-10-19T22:07:48.350Z,3.67
2022-10-19T22:10:17.488Z,3.58
2022-10-19T22:12:46.449Z,3.38
2022-10-19T22:15:16.397Z,3.17
2022-10-19T22:17:45.662Z,2.95
2022-10-19T22:20:14.737Z,2.65
2022-10-19T22:22:43.668Z,2.72
2022-10-19T22:25:12.906Z,3.13
2022-10-19T22:27:41.035Z,3.03
2022-10-19T22:30:09.545Z,2.83
2022-10-19T22:32:39.588Z,3.17
2022-10-19T22:35:08.593Z,3.10
2022-10-19T22:37:36.734Z,2.97
2022-10-19T22:40:05.901Z,2.95
2022-10-19T22:42:34.921Z,3.00
2022-10-19T22:45:04.315Z,2.78
2022-10-19T22:47:32.661Z,2.80
2022-10-19T22:50:03.843Z,2.83
2022-10-19T22:52:32.612Z,2.80
2022-10-19T22:55:01.447Z,3.15
2022-10-19T22:57:30.287Z,2.70
2022-10-19T22:59:59.282Z,2.55
2022-10-19T23:02:27.946Z,2.67
2022-10-19T23:04:58.196Z,3.10
2022-10-19T23:07:29.142Z,2.97
2022-10-19T23:09:57.736Z,2.97
2022-10-19T23:12:25.906Z,2.55
2022-10-19T23:14:54.194Z,2.75
2022-10-19T23:17:22.593Z,2.65
2022-10-19T23:19:51.606Z,3.00
2022-10-19T23:22:20.655Z,2.38
2022-10-19T23:24:51.172Z,3.08
2022-10-19T23:27:21.322Z,3.20
2022-10-19T23:29:51.640Z,2.90
2022-10-19T23:32:20.209Z,2.90
2022-10-19T23:34:49.158Z,2.83
2022-10-19T23:37:18.715Z,2.70
2022-10-19T23:39:48.938Z,2.90
2022-10-19T23:42:19.496Z,2.55
2022-10-19T23:44:48.707Z,3.05
2022-10-19T23:47:17.451Z,4.23
2022-10-19T23:49:46.074Z,3.25
2022-10-19T23:52:14.456Z,2.67
2022-10-19T23:54:45.385Z,2.20
2022-10-19T23:57:14.457Z,2.95
2022-10-19T23:59:46.231Z,2.72
